Time,TemperatureF,DewpointF,PressureIn,WindDirection,WindDirectionDegrees,WindSpeedMPH,WindSpeedGustMPH,Humidity,HourlyPrecipIn,Conditions,Clouds,dailyrainin,SoftwareType,DateUTC
2013-02-09 00:01:00,34.7,22.0,29.96,NW,321,13.0,23.0,60,0.00,,,0.00,weatherlink.com 1.10,2013-02-09 05:01:00,
2013-02-09 00:17:00,35.0,21.0,29.96,WNW,291,23.0,27.0,57,0.00,,,0.00,weatherlink.com 1.10,2013-02-09 05:17:00,
2013-02-09 00:32:00,34.7,21.0,29.97,WNW,291,13.0,26.0,58,0.00,,,0.00,weatherlink.com 1.10,2013-02-09 05:32:00,
2013-02-09 00:47:00,34.5,21.0,29.97,NW,309,13.0,27.0,57,0.00,,,0.00,weatherlink.com 1.10,2013-02-09 05:47:00,
2013-02-09 01:02:00,34.2,20.0,29.98,NNW,330,13.0,29.0,57,0.00,,,0.00,weatherlink.com 1.10,2013-02-09 06:02:00,
2013-02-09 01:17:00,34.0,20.0,29.99,WNW,300,11.0,30.0,57,0.00,,,0.00,weatherlink.com 1.10,2013-02-09 06:17:00,
2013-02-09 01:32:00,33.7,19.0,30.00,NW,309,11.0,23.0,56,0.00,,,0.00,weatherlink.com 1.10,2013-02-09 06:32:00,
2013-02-09 01:47:00,33.7,20.0,30.00,NW,308,13.0,24.0,57,0.00,,,0.00,weatherlink.com 1.10,2013-02-09 06:47:00,
2013-02-09 02:02:00,33.5,19.0,30.01,NW,310,12.0,24.0,56,0.00,,,0.00,weatherlink.com 1.10,2013-02-09 07:02:00,
2013-02-09 02:17:00,33.1,19.0,30.02,WNW,289,6.0,19.0,57,0.00,,,0.00,weatherlink.com 1.10,2013-02-09 07:17:00,
2013-02-09 02:32:00,32.7,19.0,30.02,West,280,3.0,12.0,58,0.00,,,0.00,weatherlink.com 1.10,2013-02-09 07:32:00,
2013-02-09 02:47:00,32.5,19.0,30.03,NW,315,4.0,12.0,57,0.00,,,0.00,weatherlink.com 1.10,2013-02-09 07:47:00,
2013-02-09 03:02:00,31.9,18.0,30.04,West,264,1.0,12.0,58,0.00,,,0.00,weatherlink.com 1.10,2013-02-09 08:02:00,
2013-02-09 03:17:00,31.5,18.0,30.04,WNW,298,2.0,10.0,57,0.00,,,0.00,weatherlink.com 1.10,2013-02-09 08:17:00,
2013-02-09 03:32:00,30.7,17.0,30.05,NW,314,4.0,7.0,58,0.00,,,0.00,weatherlink.com 1.10,2013-02-09 08:32:00,
2013-02-09 03:47:00,30.8,18.0,30.05,East,92,4.0,4.0,59,0.00,,,0.00,weatherlink.com 1.10,2013-02-09 08:47:00,
2013-02-09 04:03:00,30.0,18.0,30.05,ESE,120,4.0,4.0,60,0.00,,,0.00,weatherlink.com 1.10,2013-02-09 09:03:00,
2013-02-09 04:17:00,30.5,17.0,30.07,NE,54,4.0,10.0,58,0.00,,,0.00,weatherlink.com 1.10,2013-02-09 09:17:00,
2013-02-09 04:32:00,30.3,17.0,30.07,SE,129,3.0,6.0,57,0.00,,,0.00,weatherlink.com 1.10,2013-02-09 09:32:00,
2013-02-09 04:47:00,30.0,17.0,30.07,East,79,3.0,6.0,58,0.00,,,0.00,weatherlink.com 1.10,2013-02-09 09:47:00,
2013-02-09 05:02:00,29.8,16.0,30.07,ENE,61,0.0,6.0,57,0.00,,,0.00,weatherlink.com 1.10,2013-02-09 10:02:00,
2013-02-09 05:17:00,28.6,16.0,30.07,SSE,149,0.0,3.0,60,0.00,,,0.00,weatherlink.com 1.10,2013-02-09 10:17:00,
2013-02-09 05:33:00,29.9,15.0,30.08,NE,34,9.0,15.0,55,0.00,,,0.00,weatherlink.com 1.10,2013-02-09 10:33:00,
2013-02-09 05:48:00,29.5,16.0,30.09,ENE,75,1.0,5.0,57,0.00,,,0.00,weatherlink.com 1.10,2013-02-09 10:48:00,
2013-02-09 06:03:00,28.3,16.0,30.09,WSW,239,1.0,5.0,60,0.00,,,0.00,weatherlink.com 1.10,2013-02-09 11:03:00,
2013-02-09 06:18:00,28.7,15.0,30.11,NE,49,0.0,3.0,57,0.00,,,0.00,weatherlink.com 1.10,2013-02-09 11:18:00,
2013-02-09 06:33:00,29.7,14.0,30.12,NW,324,4.0,15.0,53,0.00,,,0.00,weatherlink.com 1.10,2013-02-09 11:33:00,
2013-02-09 06:48:00,29.7,15.0,30.12,NNE,22,6.0,19.0,55,0.00,,,0.00,weatherlink.com 1.10,2013-02-09 11:48:00,
2013-02-09 07:03:00,29.8,14.0,30.14,North,349,6.0,12.0,53,0.00,,,0.00,weatherlink.com 1.10,2013-02-09 12:03:00,
2013-02-09 07:18:00,29.0,15.0,30.15,North,4,4.0,9.0,56,0.00,,,0.00,weatherlink.com 1.10,2013-02-09 12:18:00,
2013-02-09 07:33:00,28.6,16.0,30.16,ENE,74,4.0,7.0,60,0.00,,,0.00,weatherlink.com 1.10,2013-02-09 12:33:00,
2013-02-09 07:48:00,28.9,16.0,30.17,NE,53,3.0,7.0,59,0.00,,,0.00,weatherlink.com 1.10,2013-02-09 12:48:00,
2013-02-09 08:03:00,29.4,16.0,30.18,NNE,22,6.0,8.0,58,0.00,,,0.00,weatherlink.com 1.10,2013-02-09 13:03:00,
2013-02-09 08:18:00,30.4,16.0,30.18,NW,310,12.0,15.0,55,0.00,,,0.00,weatherlink.com 1.10,2013-02-09 13:18:00,
2013-02-09 08:33:00,30.8,15.0,30.18,NNW,345,7.0,20.0,52,0.00,,,0.00,weatherlink.com 1.10,2013-02-09 13:33:00,
2013-02-09 08:48:00,31.0,14.0,30.19,NW,324,15.0,20.0,50,0.00,,,0.00,weatherlink.com 1.10,2013-02-09 13:48:00,
2013-02-09 09:03:00,31.2,13.0,30.19,NNW,330,13.0,23.0,48,0.00,,,0.00,weatherlink.com 1.10,2013-02-09 14:03:00,
2013-02-09 09:18:00,31.4,14.0,30.20,NW,324,8.0,22.0,49,0.00,,,0.00,weatherlink.com 1.10,2013-02-09 14:18:00,
2013-02-09 09:33:00,31.9,14.0,30.20,NW,314,9.0,18.0,48,0.00,,,0.00,weatherlink.com 1.10,2013-02-09 14:33:00,
2013-02-09 09:48:00,32.5,15.0,30.20,NW,321,12.0,18.0,49,0.00,,,0.00,weatherlink.com 1.10,2013-02-09 14:48:00,
2013-02-09 10:03:00,33.1,14.0,30.21,NW,310,10.0,14.0,46,0.00,,,0.00,weatherlink.com 1.10,2013-02-09 15:03:00,
2013-02-09 10:19:00,33.3,14.0,30.22,NW,325,6.0,14.0,46,0.00,,,0.00,weatherlink.com 1.10,2013-02-09 15:19:00,
2013-02-09 10:34:00,33.9,14.0,30.22,NNW,330,7.0,17.0,44,0.00,,,0.00,weatherlink.com 1.10,2013-02-09 15:34:00,
2013-02-09 10:49:00,34.7,14.0,30.22,NW,318,14.0,16.0,43,0.00,,,0.00,weatherlink.com 1.10,2013-02-09 15:49:00,
2013-02-09 11:03:00,35.2,14.0,30.23,West,274,10.0,17.0,41,0.00,,,0.00,weatherlink.com 1.10,2013-02-09 16:03:00,
2013-02-09 11:18:00,36.2,14.0,30.23,NNW,330,4.0,17.0,40,0.00,,,0.00,weatherlink.com 1.10,2013-02-09 16:18:00,
2013-02-09 11:34:00,36.7,13.0,30.23,NW,308,6.0,15.0,38,0.00,,,0.00,weatherlink.com 1.10,2013-02-09 16:34:00,
2013-02-09 11:48:00,37.8,13.0,30.22,NW,305,11.0,18.0,36,0.00,,,0.00,weatherlink.com 1.10,2013-02-09 16:48:00,
2013-02-09 12:04:00,38.7,12.0,30.21,WNW,300,10.0,15.0,34,0.00,,,0.00,weatherlink.com 1.10,2013-02-09 17:04:00,
2013-02-09 12:19:00,38.7,12.0,30.21,North,355,9.0,19.0,33,0.00,,,0.00,weatherlink.com 1.10,2013-02-09 17:19:00,
2013-02-09 12:34:00,40.0,14.0,30.21,NW,314,10.0,16.0,34,0.00,,,0.00,weatherlink.com 1.10,2013-02-09 17:34:00,
2013-02-09 12:49:00,40.3,12.0,30.21,NNW,330,9.0,17.0,31,0.00,,,0.00,weatherlink.com 1.10,2013-02-09 17:49:00,
2013-02-09 13:04:00,40.8,13.0,30.21,NW,311,10.0,16.0,32,0.00,,,0.00,weatherlink.com 1.10,2013-02-09 18:04:00,
2013-02-09 13:19:00,41.4,12.0,30.21,NW,323,6.0,13.0,30,0.00,,,0.00,weatherlink.com 1.10,2013-02-09 18:19:00,
2013-02-09 13:34:00,41.2,11.0,30.21,NW,315,11.0,14.0,29,0.00,,,0.00,weatherlink.com 1.10,2013-02-09 18:34:00,
2013-02-09 13:49:00,41.9,11.0,30.21,WNW,300,7.0,15.0,28,0.00,,,0.00,weatherlink.com 1.10,2013-02-09 18:49:00,
2013-02-09 14:04:00,42.5,11.0,30.21,NW,325,6.0,13.0,27,0.00,,,0.00,weatherlink.com 1.10,2013-02-09 19:04:00,
2013-02-09 14:19:00,42.6,12.0,30.21,WNW,298,8.0,11.0,29,0.00,,,0.00,weatherlink.com 1.10,2013-02-09 19:19:00,
2013-02-09 14:34:00,43.1,11.0,30.21,WNW,295,4.0,12.0,27,0.00,,,0.00,weatherlink.com 1.10,2013-02-09 19:34:00,
2013-02-09 14:49:00,43.9,13.0,30.21,WNW,301,5.0,10.0,28,0.00,,,0.00,weatherlink.com 1.10,2013-02-09 19:49:00,
2013-02-09 15:04:00,44.0,12.0,30.22,NW,305,5.0,9.0,27,0.00,,,0.00,weatherlink.com 1.10,2013-02-09 20:04:00,
2013-02-09 15:19:00,43.8,12.0,30.22,North,9,5.0,10.0,27,0.00,,,0.00,weatherlink.com 1.10,2013-02-09 20:19:00,
2013-02-09 15:34:00,43.9,12.0,30.22,NW,311,2.0,8.0,27,0.00,,,0.00,weatherlink.com 1.10,2013-02-09 20:34:00,
2013-02-09 15:49:00,44.5,11.0,30.22,NNW,333,6.0,11.0,26,0.00,,,0.00,weatherlink.com 1.10,2013-02-09 20:49:00,
2013-02-09 16:04:00,44.6,11.0,30.22,NW,321,2.0,7.0,26,0.00,,,0.00,weatherlink.com 1.10,2013-02-09 21:04:00,
2013-02-09 16:19:00,44.5,13.0,30.23,North,352,7.0,11.0,28,0.00,,,0.00,weatherlink.com 1.10,2013-02-09 21:19:00,
2013-02-09 16:34:00,44.1,14.0,30.23,NNE,22,6.0,9.0,29,0.00,,,0.00,weatherlink.com 1.10,2013-02-09 21:34:00,
2013-02-09 16:49:00,44.2,14.0,30.24,North,9,5.0,7.0,29,0.00,,,0.00,weatherlink.com 1.10,2013-02-09 21:49:00,
2013-02-09 17:04:00,43.5,12.0,30.25,NNE,12,5.0,6.0,28,0.00,,,0.00,weatherlink.com 1.10,2013-02-09 22:04:00,
2013-02-09 17:19:00,43.2,13.0,30.25,NNE,19,3.0,6.0,29,0.00,,,0.00,weatherlink.com 1.10,2013-02-09 22:19:00,
2013-02-09 17:34:00,42.4,13.0,30.25,NE,43,3.0,5.0,30,0.00,,,0.00,weatherlink.com 1.10,2013-02-09 22:34:00,
2013-02-09 17:49:00,41.2,13.0,30.26,NNE,23,5.0,6.0,31,0.00,,,0.00,weatherlink.com 1.10,2013-02-09 22:49:00,
2013-02-09 18:04:00,40.2,12.0,30.26,NNE,30,4.0,6.0,32,0.00,,,0.00,weatherlink.com 1.10,2013-02-09 23:04:00,
2013-02-09 18:19:00,38.6,14.0,30.27,ESE,108,0.0,4.0,37,0.00,,,0.00,weatherlink.com 1.10,2013-02-09 23:19:00,
2013-02-09 18:35:00,37.7,12.0,30.27,NNE,13,4.0,5.0,35,0.00,,,0.00,weatherlink.com 1.10,2013-02-09 23:35:00,
2013-02-09 18:49:00,37.1,13.0,30.28,SE,126,0.0,3.0,38,0.00,,,0.00,weatherlink.com 1.10,2013-02-09 23:49:00,
2013-02-09 19:04:00,35.9,14.0,30.27,NNW,336,2.0,4.0,40,0.00,,,0.00,weatherlink.com 1.10,2013-02-10 00:04:00,
2013-02-09 19:19:00,34.7,14.0,30.28,SE,131,3.0,3.0,42,0.00,,,0.00,weatherlink.com 1.10,2013-02-10 00:19:00,
2013-02-09 19:34:00,34.3,14.0,30.28,NW,314,2.0,4.0,43,0.00,,,0.00,weatherlink.com 1.10,2013-02-10 00:34:00,
2013-02-09 19:50:00,32.1,14.0,30.29,West,260,0.0,3.0,47,0.00,,,0.00,weatherlink.com 1.10,2013-02-10 00:50:00,
2013-02-09 20:04:00,32.4,15.0,30.29,WSW,255,1.0,3.0,49,0.00,,,0.00,weatherlink.com 1.10,2013-02-10 01:04:00,
2013-02-09 20:19:00,30.8,14.0,30.30,WNW,297,2.0,3.0,51,0.00,,,0.00,weatherlink.com 1.10,2013-02-10 01:19:00,
2013-02-09 20:34:00,30.0,16.0,30.30,WNW,283,1.0,2.0,56,0.00,,,0.00,weatherlink.com 1.10,2013-02-10 01:34:00,
2013-02-09 20:49:00,29.6,16.0,30.30,WSW,240,1.0,2.0,58,0.00,,,0.00,weatherlink.com 1.10,2013-02-10 01:49:00,
2013-02-09 21:05:00,29.4,16.0,30.30,SSW,204,0.0,-999.0,58,-99.99,,,0.00,weatherlink.com 1.10,2013-02-10 02:05:00,
2013-02-09 21:19:00,27.3,16.0,30.30,WNW,283,1.0,2.0,63,0.00,,,0.00,weatherlink.com 1.10,2013-02-10 02:19:00,
2013-02-09 21:34:00,26.9,16.0,30.31,WSW,242,1.0,3.0,64,0.00,,,0.00,weatherlink.com 1.10,2013-02-10 02:34:00,
2013-02-09 21:50:00,25.7,18.0,30.32,West,280,0.0,3.0,73,0.00,,,0.00,weatherlink.com 1.10,2013-02-10 02:50:00,
2013-02-09 22:05:00,25.4,18.0,30.32,WNW,298,2.0,4.0,74,0.00,,,0.00,weatherlink.com 1.10,2013-02-10 03:05:00,
2013-02-09 22:21:00,25.7,18.0,30.32,West,271,1.0,2.0,73,0.00,,,0.00,weatherlink.com 1.10,2013-02-10 03:21:00,
2013-02-09 22:35:00,25.7,18.0,30.32,WSW,250,1.0,2.0,73,0.00,,,0.00,weatherlink.com 1.10,2013-02-10 03:35:00,
2013-02-09 22:50:00,25.7,18.0,30.32,WNW,294,1.0,3.0,72,0.00,,,0.00,weatherlink.com 1.10,2013-02-10 03:50:00,
2013-02-09 23:05:00,25.1,19.0,30.33,SW,233,0.0,1.0,76,0.00,,,0.00,weatherlink.com 1.10,2013-02-10 04:05:00,
2013-02-09 23:20:00,23.9,17.0,30.33,SW,233,0.0,0.0,76,0.00,,,0.00,weatherlink.com 1.10,2013-02-10 04:20:00,
2013-02-09 23:35:00,23.3,17.0,30.32,WSW,257,1.0,2.0,77,0.00,,,0.00,weatherlink.com 1.10,2013-02-10 04:35:00,
2013-02-09 23:50:00,23.4,18.0,30.32,NW,317,2.0,2.0,80,0.00,,,0.00,weatherlink.com 1.10,2013-02-10 04:50:00,